Terminal Aerodrome Forecast
Issued by NWS Memphis, TN

Current Version | Previous Version | Text Only | Print | Product List | Glossary On
Versions: 1 2 3 4 5 6 7 8 9 10 11 12 13 14 15 16 17 18 19 20 21 22 23 24 25 26 27
000
FTUS44 KMEG 292000 AAA
TAFMEM
TAF AMD
KMEM 292035Z 2921/3018 32009KT P6SM FEW050
     FM300000 04003KT P6SM SCT250
     FM301600 19006KT P6SM BKN250=

USA.gov is the U.S. government's official web portal to all federal, state and local government web resources and services.